createdAt,value
2019-04-11T00:00:27.974Z,989.56
2019-04-11T00:02:33.209Z,989.58
2019-04-11T00:03:33.506Z,989.61
2019-04-11T00:04:34.379Z,989.55
2019-04-11T00:05:37.715Z,989.58
2019-04-11T00:08:05.977Z,989.56
2019-04-11T00:09:06.072Z,989.54
2019-04-11T00:10:06.159Z,989.59
2019-04-11T00:11:09.473Z,989.61
2019-04-11T00:12:06.322Z,989.59
2019-04-11T00:13:17.224Z,989.58
2019-04-11T00:14:05.572Z,989.55
2019-04-11T00:15:06.415Z,989.59
2019-04-11T00:16:09.072Z,989.57
2019-04-11T00:17:06.076Z,989.55
2019-04-11T00:18:06.201Z,989.60
2019-04-11T00:19:07.298Z,989.60
2019-04-11T00:20:07.556Z,989.61
2019-04-11T00:23:03.347Z,989.58
2019-04-11T00:23:42.683Z,989.61
2019-04-11T00:25:03.355Z,989.63
2019-04-11T00:25:42.358Z,989.65
2019-04-11T00:26:46.586Z,989.63
2019-04-11T00:27:43.419Z,989.60
2019-04-11T00:28:42.864Z,989.61
2019-04-11T00:29:42.860Z,989.60
2019-04-11T00:30:44.090Z,989.62
2019-04-11T00:31:48.028Z,989.59
2019-04-11T00:32:43.407Z,989.61
2019-04-11T00:33:44.488Z,989.64
2019-04-11T00:36:16.585Z,989.62
2019-04-11T00:37:19.125Z,989.61
2019-04-11T00:38:36.593Z,989.66
2019-04-11T00:39:15.601Z,989.68
2019-04-11T00:40:18.617Z,989.67
2019-04-11T00:41:16.093Z,989.68
2019-04-11T00:42:43.527Z,989.64
2019-04-11T00:43:29.702Z,989.67
2019-04-11T00:44:16.850Z,989.69
2019-04-11T00:45:16.594Z,989.68
2019-04-11T00:46:16.594Z,989.68
2019-04-11T00:47:17.163Z,989.73
2019-04-11T00:48:20.093Z,989.71
2019-04-11T00:49:38.757Z,989.70
2019-04-11T00:50:17.092Z,989.67
2019-04-11T00:51:17.647Z,989.67
2019-04-11T00:52:17.289Z,989.72
2019-04-11T00:53:22.204Z,989.71
2019-04-11T00:54:18.489Z,989.76
2019-04-11T00:55:17.668Z,989.75
2019-04-11T00:56:17.868Z,989.75
2019-04-11T00:57:21.072Z,989.75
2019-04-11T00:58:19.232Z,989.77
2019-04-11T00:59:21.091Z,989.74
2019-04-11T01:00:39.776Z,989.76
2019-04-11T01:01:39.591Z,989.75
2019-04-11T01:03:49.954Z,989.77
2019-04-11T01:04:53.988Z,989.75
2019-04-11T01:05:50.459Z,989.81
2019-04-11T01:06:50.457Z,989.80
2019-04-11T01:07:51.306Z,989.79
2019-04-11T01:08:51.543Z,989.75
2019-04-11T01:09:50.957Z,989.79
2019-04-11T01:10:55.231Z,989.77
2019-04-11T01:11:51.975Z,989.77
2019-04-11T01:12:51.312Z,989.77
2019-04-11T01:13:54.649Z,989.80
2019-04-11T01:14:51.457Z,989.81
2019-04-11T01:15:52.377Z,989.84
2019-04-11T01:16:54.955Z,989.79
2019-04-11T01:17:53.966Z,989.84
2019-04-11T01:19:14.176Z,989.81
2019-04-11T01:20:13.300Z,989.83
2019-04-11T01:20:51.954Z,989.82
2019-04-11T01:21:57.875Z,989.81
2019-04-11T01:22:52.456Z,989.80
2019-04-11T01:23:53.395Z,989.78
2019-04-11T01:24:52.454Z,989.81
2019-04-11T01:25:52.965Z,989.82
2019-04-11T01:26:53.878Z,989.84
2019-04-11T01:27:56.953Z,989.82
2019-04-11T01:28:53.550Z,989.85
2019-04-11T01:29:53.580Z,989.77
2019-04-11T01:30:53.456Z,989.82
2019-04-11T01:31:53.850Z,989.80
2019-04-11T01:32:53.459Z,989.78
2019-04-11T01:33:57.079Z,989.81
2019-04-11T01:34:55.018Z,989.80
2019-04-11T01:35:53.953Z,989.80
2019-04-11T01:36:53.952Z,989.80
2019-04-11T01:37:55.666Z,989.79
2019-04-11T01:38:57.024Z,989.78
2019-04-11T01:39:54.455Z,989.79
2019-04-11T01:40:54.459Z,989.80
2019-04-11T01:41:55.157Z,989.80
2019-04-11T01:42:57.645Z,989.85
2019-04-11T01:44:02.163Z,989.83
2019-04-11T01:44:54.952Z,989.82
2019-04-11T01:45:55.995Z,989.81
2019-04-11T01:47:16.450Z,989.84
2019-04-11T01:47:55.453Z,989.83
2019-04-11T01:48:59.746Z,989.86
2019-04-11T01:49:56.617Z,989.82
2019-04-11T01:50:56.965Z,989.85
2019-04-11T01:51:56.084Z,989.87
2019-04-11T01:52:55.958Z,989.84
2019-04-11T01:53:57.428Z,989.82
2019-04-11T01:55:02.030Z,989.83
2019-04-11T01:55:56.903Z,989.86
2019-04-11T01:56:56.488Z,989.86
2019-04-11T01:57:56.450Z,989.88
2019-04-11T01:58:57.305Z,989.85
2019-04-11T02:01:32.707Z,989.95
2019-04-11T02:02:32.710Z,989.96
2019-04-11T02:03:33.062Z,989.94
2019-04-11T02:04:32.668Z,989.87
2019-04-11T02:05:57.668Z,989.86
2019-04-11T02:06:32.668Z,989.89
2019-04-11T02:07:34.295Z,989.89
2019-04-11T02:08:33.455Z,989.88
2019-04-11T02:09:33.169Z,989.86
2019-04-11T02:10:33.168Z,989.89
2019-04-11T02:11:58.251Z,989.92
2019-04-11T02:12:35.301Z,989.88
2019-04-11T02:13:34.199Z,989.89
2019-04-11T02:14:33.668Z,989.89
2019-04-11T02:15:36.734Z,989.92
2019-04-11T02:16:34.824Z,989.96
2019-04-11T02:17:37.667Z,989.91
2019-04-11T02:18:35.162Z,989.91
2019-04-11T02:19:34.668Z,989.89
2019-04-11T02:20:36.811Z,989.92
2019-04-11T02:21:35.780Z,989.91
2019-04-11T02:24:10.007Z,989.94
2019-04-11T02:25:12.278Z,989.94
2019-04-11T02:26:10.513Z,989.94
2019-04-11T02:27:11.950Z,989.96
2019-04-11T02:28:14.728Z,989.96
2019-04-11T02:29:31.539Z,989.99
2019-04-11T02:30:11.166Z,990.02
2019-04-11T02:31:12.286Z,990.02
2019-04-11T02:32:12.285Z,990.05
2019-04-11T02:33:12.195Z,990.03
2019-04-11T02:34:16.038Z,989.97
2019-04-11T02:35:32.650Z,990.04
2019-04-11T02:36:12.220Z,990.03
2019-04-11T02:37:13.343Z,990.05
2019-04-11T02:38:12.614Z,990.01
2019-04-11T02:39:36.519Z,990.03
2019-04-11T02:40:33.013Z,990.08
2019-04-11T02:41:12.554Z,990.08
2019-04-11T02:42:12.969Z,990.08
2019-04-11T02:43:13.335Z,990.07
2019-04-11T02:44:30.746Z,990.08
2019-04-11T02:45:50.883Z,990.10
2019-04-11T02:46:23.509Z,990.05
2019-04-11T02:47:24.864Z,990.09
2019-04-11T02:48:13.749Z,990.12
2019-04-11T02:49:35.211Z,990.11
2019-04-11T02:51:49.458Z,990.13
2019-04-11T02:53:09.591Z,990.12
2019-04-11T02:53:49.623Z,990.10
2019-04-11T02:54:49.296Z,990.13
2019-04-11T02:55:52.056Z,990.17
2019-04-11T02:56:50.393Z,990.21
2019-04-11T02:59:44.469Z,990.22
2019-04-11T03:00:21.065Z,990.22
2019-04-11T03:01:46.443Z,990.27
2019-04-11T03:02:26.210Z,990.19
2019-04-11T03:04:55.367Z,990.23
2019-04-11T03:05:53.770Z,990.22
2019-04-11T03:06:57.475Z,990.28
2019-04-11T03:08:19.004Z,990.25
2019-04-11T03:08:55.048Z,990.28
2019-04-11T03:09:55.964Z,990.26
2019-04-11T03:10:57.496Z,990.27
2019-04-11T03:12:21.524Z,990.29
2019-04-11T03:12:54.541Z,990.29
2019-04-11T03:13:54.828Z,990.26
2019-04-11T03:15:12.695Z,990.34
2019-04-11T03:16:10.019Z,990.31
2019-04-11T03:17:02.534Z,990.36
2019-04-11T03:18:02.198Z,990.31
2019-04-11T03:19:13.300Z,990.29
2019-04-11T03:20:08.358Z,990.35
2019-04-11T03:21:00.146Z,990.34
2019-04-11T03:22:16.275Z,990.37
2019-04-11T03:23:27.878Z,990.37
2019-04-11T03:23:56.223Z,990.42
2019-04-11T03:24:55.510Z,990.39
2019-04-11T03:25:56.637Z,990.46
2019-04-11T03:26:58.192Z,990.48
2019-04-11T03:27:57.078Z,990.47
2019-04-11T03:29:02.037Z,990.52
2019-04-11T03:30:24.944Z,990.48
2019-04-11T03:31:26.761Z,990.49
2019-04-11T03:32:41.907Z,990.55
2019-04-11T03:35:03.323Z,990.55
2019-04-11T03:36:51.264Z,990.58
2019-04-11T03:38:27.333Z,990.58
2019-04-11T03:39:15.623Z,990.58
2019-04-11T03:40:19.504Z,990.56
2019-04-11T03:42:47.977Z,990.63
2019-04-11T03:43:42.034Z,990.57
2019-04-11T03:44:38.350Z,990.56
2019-04-11T03:45:52.712Z,990.60
2019-04-11T03:46:49.267Z,990.59
2019-04-11T03:47:45.844Z,990.58
2019-04-11T03:48:42.145Z,990.59
2019-04-11T03:49:43.786Z,990.57
2019-04-11T03:50:34.316Z,990.59
2019-04-11T03:51:33.980Z,990.61
2019-04-11T03:52:36.646Z,990.61
2019-04-11T03:53:34.384Z,990.61
2019-04-11T03:54:34.235Z,990.61
2019-04-11T03:55:34.962Z,990.64
2019-04-11T03:56:35.049Z,990.69
2019-04-11T03:59:12.369Z,990.74
2019-04-11T04:00:10.248Z,990.76
2019-04-11T04:02:46.552Z,990.75
2019-04-11T04:03:42.502Z,990.78
2019-04-11T04:04:41.551Z,990.79
2019-04-11T04:05:43.712Z,990.79
2019-04-11T04:06:43.265Z,990.85
2019-04-11T04:07:41.650Z,990.87
2019-04-11T04:08:46.590Z,990.91
2019-04-11T04:11:14.952Z,990.88
2019-04-11T04:12:14.152Z,990.93
2019-04-11T04:13:16.953Z,990.95
2019-04-11T04:14:19.404Z,990.97
2019-04-11T04:15:31.398Z,990.99
2019-04-11T04:16:21.980Z,990.96
2019-04-11T04:17:14.831Z,990.98
2019-04-11T04:18:16.197Z,990.98
2019-04-11T04:19:16.249Z,990.98
2019-04-11T04:20:19.474Z,991.06
2019-04-11T04:21:15.535Z,991.05
2019-04-11T04:22:16.088Z,991.07
2019-04-11T04:23:16.496Z,991.11
2019-04-11T04:24:14.889Z,991.10
2019-04-11T04:25:16.514Z,991.15
2019-04-11T04:26:19.228Z,991.13
2019-04-11T04:27:15.545Z,991.13
2019-04-11T04:28:15.840Z,991.16
2019-04-11T04:29:15.504Z,991.20
2019-04-11T04:30:17.629Z,991.22
2019-04-11T04:31:40.659Z,991.25
2019-04-11T04:32:16.380Z,991.24
2019-04-11T04:33:17.101Z,991.27
2019-04-11T04:34:17.768Z,991.27
2019-04-11T04:35:19.724Z,991.24
2019-04-11T04:36:18.274Z,991.26
2019-04-11T04:37:23.529Z,991.31
2019-04-11T04:38:16.890Z,991.28
2019-04-11T04:39:17.439Z,991.31
2019-04-11T04:40:31.604Z,991.30
2019-04-11T04:41:26.789Z,991.35
2019-04-11T04:42:24.304Z,991.33
2019-04-11T04:43:20.401Z,991.31
2019-04-11T04:44:19.062Z,991.36
2019-04-11T04:45:19.111Z,991.40
2019-04-11T04:47:56.893Z,991.40
2019-04-11T04:50:26.711Z,991.42
2019-04-11T04:51:26.636Z,991.43
2019-04-11T04:52:46.062Z,991.44
2019-04-11T04:53:33.159Z,991.46
2019-04-11T04:54:30.403Z,991.50
2019-04-11T04:55:26.390Z,991.50
2019-04-11T04:56:29.392Z,991.51
2019-04-11T04:57:47.057Z,991.54
2019-04-11T05:00:27.517Z,991.57
2019-04-11T05:00:58.548Z,991.53
2019-04-11T05:01:57.425Z,991.50
2019-04-11T05:02:59.240Z,991.53
2019-04-11T05:03:58.338Z,991.56
2019-04-11T05:05:24.403Z,991.55
2019-04-11T05:05:58.409Z,991.62
2019-04-11T05:06:59.035Z,991.63
2019-04-11T05:07:58.912Z,991.64
2019-04-11T05:09:00.043Z,991.62
2019-04-11T05:09:58.740Z,991.62
2019-04-11T05:11:02.840Z,991.67
2019-04-11T05:13:51.895Z,991.66
2019-04-11T05:14:31.570Z,991.68
2019-04-11T05:15:30.185Z,991.70
2019-04-11T05:16:35.580Z,991.65
2019-04-11T05:17:32.209Z,991.70
2019-04-11T05:18:30.652Z,991.70
2019-04-11T05:19:31.901Z,991.68
2019-04-11T05:20:32.197Z,991.68
2019-04-11T05:21:35.150Z,991.72
2019-04-11T05:22:31.150Z,991.72
2019-04-11T05:23:52.220Z,991.75
2019-04-11T05:24:31.664Z,991.73
2019-04-11T05:25:32.691Z,991.72
2019-04-11T05:26:35.650Z,991.74
2019-04-11T05:27:31.650Z,991.74
2019-04-11T05:28:32.150Z,991.74
2019-04-11T05:29:32.195Z,991.73
2019-04-11T05:30:32.151Z,991.74
2019-04-11T05:31:32.328Z,991.76
2019-04-11T05:34:07.895Z,991.74
2019-04-11T05:35:08.958Z,991.79
2019-04-11T05:36:08.180Z,991.78
2019-04-11T05:37:29.401Z,991.79
2019-04-11T05:38:32.894Z,991.81
2019-04-11T05:39:08.744Z,991.79
2019-04-11T05:40:09.939Z,991.86
2019-04-11T05:42:40.041Z,991.84
2019-04-11T05:43:43.546Z,991.90
2019-04-11T05:46:29.810Z,991.89
2019-04-11T05:47:32.784Z,991.91
2019-04-11T05:48:32.795Z,991.91
2019-04-11T05:49:15.288Z,991.89
2019-04-11T05:50:34.093Z,991.93
2019-04-11T05:51:41.014Z,991.90
2019-04-11T05:52:12.358Z,991.90
2019-04-11T05:54:49.768Z,992.00
2019-04-11T05:55:45.785Z,991.96
2019-04-11T05:56:53.048Z,991.97
2019-04-11T05:57:46.900Z,991.95
2019-04-11T05:58:47.330Z,991.97
2019-04-11T05:59:45.978Z,991.97
2019-04-11T06:00:48.922Z,991.99
2019-04-11T06:01:45.015Z,991.97
2019-04-11T06:02:45.654Z,991.94
2019-04-11T06:03:49.168Z,991.95
2019-04-11T06:04:46.905Z,991.98
2019-04-11T06:05:49.920Z,991.97
2019-04-11T06:06:46.548Z,991.94
2019-04-11T06:08:06.658Z,991.94
2019-04-11T06:08:46.470Z,991.95
2019-04-11T06:09:46.277Z,991.98
2019-04-11T06:10:46.609Z,991.98
2019-04-11T06:11:52.274Z,991.96
2019-04-11T06:12:46.033Z,991.95
2019-04-11T06:13:46.814Z,991.98
2019-04-11T06:14:47.083Z,992.04
2019-04-11T06:15:47.225Z,991.90
2019-04-11T06:16:52.597Z,991.97
2019-04-11T06:17:46.516Z,991.99
2019-04-11T06:18:46.514Z,992.01
2019-04-11T06:19:46.516Z,992.01
2019-04-11T06:21:08.013Z,991.98
2019-04-11T06:23:23.368Z,992.03
2019-04-11T06:25:55.438Z,991.99
2019-04-11T06:26:58.812Z,992.08
2019-04-11T06:27:55.799Z,992.03
2019-04-11T06:28:55.884Z,992.13
2019-04-11T06:29:54.899Z,992.11
2019-04-11T06:30:54.823Z,992.10
2019-04-11T06:31:59.186Z,992.10
2019-04-11T06:33:16.462Z,992.10
2019-04-11T06:34:16.174Z,992.06
2019-04-11T06:34:55.568Z,992.10
2019-04-11T06:35:55.144Z,992.08
2019-04-11T06:37:19.337Z,992.07
2019-04-11T06:37:56.308Z,992.08
2019-04-11T06:38:56.698Z,992.07
2019-04-11T06:39:57.775Z,992.17
2019-04-11T06:42:31.705Z,992.11
2019-04-11T06:43:27.835Z,992.19
2019-04-11T06:44:27.992Z,992.24
2019-04-11T06:45:27.387Z,992.19
2019-04-11T06:48:03.178Z,992.27
2019-04-11T06:49:00.187Z,992.27
2019-04-11T06:49:59.120Z,992.22
2019-04-11T06:51:19.919Z,992.24
2019-04-11T06:52:00.224Z,992.24
2019-04-11T06:53:04.400Z,992.28
2019-04-11T06:54:00.857Z,992.30
2019-04-11T06:54:59.619Z,992.26
2019-04-11T06:56:00.610Z,992.27
2019-04-11T06:57:01.200Z,992.28
